Time;durP1;ratioP1;P1;durP2;ratioP2;P2;SDS_P1;SDS_P2;PMS_P1;PMS_P2;Temp;Humidity;BMP_temperature;BMP_pressure;BME280_temperature;BME280_humidity;BME280_pressure;Samples;Min_cycle;Max_cycle;Signal;HPM_P1;HPM_P2
2023/05/01 00:01:18;;;;;;;7.50;4.50;;;9.80;99.90;;;;;;5085891;27;20126;-78
2023/05/01 00:03:44;;;;;;;6.68;4.55;;;9.90;99.90;;;;;;5062742;27;20030;-80
2023/05/01 00:06:10;;;;;;;6.40;4.93;;;9.80;99.90;;;;;;5071475;27;20040;-78
2023/05/01 00:08:35;;;;;;;5.82;4.47;;;9.90;99.90;;;;;;5100556;28;20031;-77
2023/05/01 00:11:08;;;;;;;7.25;4.70;;;9.80;99.90;;;;;;5108522;28;20464;-79
2023/05/01 00:13:34;;;;;;;6.88;5.15;;;10.00;99.90;;;;;;5085175;28;20047;-80
2023/05/01 00:16:00;;;;;;;7.07;4.57;;;9.90;99.90;;;;;;5076112;28;20041;-76
2023/05/01 00:18:25;;;;;;;7.30;5.18;;;9.80;99.90;;;;;;5086808;28;20419;-81
2023/05/01 00:20:51;;;;;;;8.30;5.10;;;10.00;99.90;;;;;;5087016;28;20078;-81
2023/05/01 00:23:17;;;;;;;8.93;4.75;;;10.00;99.90;;;;;;5072510;28;20092;-78
2023/05/01 00:25:43;;;;;;;9.00;5.28;;;9.80;99.90;;;;;;5086526;28;20046;-81
2023/05/01 00:28:08;;;;;;;6.60;4.55;;;10.00;99.90;;;;;;5079090;27;20055;-76
2023/05/01 00:30:34;;;;;;;7.93;5.60;;;9.90;99.90;;;;;;5044573;28;20044;-79
2023/05/01 00:33:00;;;;;;;8.88;4.68;;;9.90;99.90;;;;;;5084399;28;20113;-83
2023/05/01 00:35:26;;;;;;;7.47;5.35;;;9.80;99.90;;;;;;5100958;28;20048;-81
2023/05/01 00:37:52;;;;;;;6.60;4.88;;;9.70;99.90;;;;;;5088901;28;20099;-83
2023/05/01 00:40:18;;;;;;;10.48;5.40;;;9.90;99.90;;;;;;5070303;28;20135;-77
2023/05/01 00:42:43;;;;;;;7.28;5.20;;;9.90;99.90;;;;;;5115614;27;20643;-79
2023/05/01 00:45:09;;;;;;;7.22;5.25;;;9.80;99.90;;;;;;5079065;28;20155;-77
2023/05/01 00:47:35;;;;;;;10.30;5.15;;;9.80;99.90;;;;;;5117811;27;20074;-77
2023/05/01 00:50:02;;;;;;;6.43;4.63;;;9.60;99.90;;;;;;5081829;27;20043;-78
2023/05/01 00:52:28;;;;;;;8.23;5.57;;;9.50;99.90;;;;;;5070256;27;20059;-76
2023/05/01 00:54:54;;;;;;;6.88;4.93;;;9.50;99.90;;;;;;5073886;28;20067;-77
2023/05/01 00:57:21;;;;;;;8.75;4.93;;;9.40;99.90;;;;;;5106341;27;20055;-79
2023/05/01 00:59:47;;;;;;;7.80;5.30;;;9.20;99.90;;;;;;5117754;27;20027;-77
2023/05/01 01:02:13;;;;;;;6.95;5.03;;;9.20;99.90;;;;;;5090036;28;20039;-79
2023/05/01 01:04:45;;;;;;;8.10;5.35;;;9.10;99.90;;;;;;5083685;28;20063;-83
2023/05/01 01:07:40;;;;;;;7.72;5.13;;;9.30;99.90;;;;;;5089953;28;20127;-83
2023/05/01 01:10:20;;;;;;;8.07;4.78;;;9.20;99.90;;;;;;5091057;28;20419;-81
2023/05/01 01:12:57;;;;;;;8.63;5.13;;;9.00;99.90;;;;;;5090886;27;20030;-78
2023/05/01 01:15:46;;;;;;;7.43;5.25;;;9.00;99.90;;;;;;5086521;28;20122;-80
2023/05/01 01:18:29;;;;;;;7.00;4.88;;;9.10;99.90;;;;;;5071591;28;20074;-79
2023/05/01 01:21:19;;;;;;;8.75;5.13;;;9.00;99.90;;;;;;5092477;28;20043;-77
2023/05/01 01:24:17;;;;;;;8.43;4.68;;;8.90;99.90;;;;;;5100219;28;20933;-77
2023/05/01 01:27:17;;;;;;;7.53;4.85;;;8.80;99.90;;;;;;5081163;28;20035;-79
2023/05/01 01:30:28;;;;;;;9.10;5.30;;;8.90;99.90;;;;;;5083392;28;20044;-80
2023/05/01 01:33:47;;;;;;;7.75;5.10;;;8.80;99.90;;;;;;5096779;27;20043;-78
2023/05/01 01:36:20;;;;;;;8.43;5.22;;;8.80;99.90;;;;;;5015364;28;20096;-78
2023/05/01 01:39:06;;;;;;;6.32;4.85;;;8.80;99.90;;;;;;5083132;28;20042;-81
2023/05/01 01:41:34;;;;;;;6.85;4.97;;;8.80;99.90;;;;;;5084501;28;20047;-77
2023/05/01 01:44:15;;;;;;;8.20;5.22;;;9.20;99.90;;;;;;5074009;28;20077;-78
2023/05/01 01:46:42;;;;;;;9.05;5.97;;;9.20;99.90;;;;;;5098316;28;20395;-80
2023/05/01 01:49:14;;;;;;;10.65;5.45;;;9.20;99.90;;;;;;5099672;28;20301;-78
2023/05/01 01:51:41;;;;;;;6.60;4.93;;;9.50;99.90;;;;;;5096895;27;20051;-77
2023/05/01 01:54:10;;;;;;;8.52;5.75;;;9.40;99.90;;;;;;5080752;28;20043;-78
2023/05/01 01:56:39;;;;;;;10.55;5.22;;;9.50;99.90;;;;;;5096479;28;20043;-78
2023/05/01 01:59:05;;;;;;;7.22;5.00;;;9.70;99.90;;;;;;5088804;28;20044;-80
2023/05/01 02:01:33;;;;;;;10.75;6.10;;;9.60;99.90;;;;;;5090708;28;20036;-80
2023/05/01 02:04:00;;;;;;;10.52;5.55;;;9.80;99.90;;;;;;5083704;28;20051;-82
2023/05/01 02:06:27;;;;;;;8.07;5.00;;;9.70;99.90;;;;;;5113467;27;20035;-80
2023/05/01 02:08:55;;;;;;;8.65;5.47;;;9.80;99.90;;;;;;5084523;28;20035;-79
2023/05/01 02:11:22;;;;;;;8.63;5.72;;;9.70;99.90;;;;;;5072401;28;20121;-79
2023/05/01 02:13:49;;;;;;;7.97;4.65;;;9.80;99.90;;;;;;5060875;28;20044;-78
2023/05/01 02:16:16;;;;;;;8.45;5.40;;;9.80;99.90;;;;;;5069973;28;20043;-79
2023/05/01 02:18:45;;;;;;;11.52;6.03;;;9.80;99.90;;;;;;5097444;28;20067;-80
2023/05/01 02:21:12;;;;;;;9.02;5.20;;;9.80;99.90;;;;;;5089508;28;20072;-77
2023/05/01 02:23:38;;;;;;;9.50;5.70;;;9.80;99.90;;;;;;5099576;28;20034;-81
2023/05/01 02:26:05;;;;;;;7.55;5.57;;;9.70;99.90;;;;;;5080764;28;20116;-79
2023/05/01 02:28:33;;;;;;;5.95;4.78;;;9.60;99.90;;;;;;5097888;28;20110;-79
2023/05/01 02:30:58;;;;;;;7.95;5.43;;;9.60;99.90;;;;;;5106385;28;20043;-79
2023/05/01 02:33:24;;;;;;;7.75;5.13;;;9.60;99.90;;;;;;5066851;28;20032;-79
2023/05/01 02:35:50;;;;;;;8.52;5.00;;;9.50;99.90;;;;;;5096553;28;20468;-77
2023/05/01 02:38:16;;;;;;;8.48;4.95;;;9.40;99.90;;;;;;5071340;28;20071;-78
2023/05/01 02:40:46;;;;;;;8.90;5.25;;;9.40;99.90;;;;;;5088517;28;20394;-84
2023/05/01 02:43:15;;;;;;;9.70;5.80;;;9.40;99.90;;;;;;5089571;28;20579;-81
2023/05/01 02:45:41;;;;;;;8.88;5.30;;;9.40;99.90;;;;;;5073366;28;20043;-77
2023/05/01 02:48:10;;;;;;;9.82;5.35;;;9.20;99.90;;;;;;5074403;28;20488;-77
2023/05/01 02:50:39;;;;;;;7.38;5.45;;;9.20;99.90;;;;;;5087098;28;20614;-81
2023/05/01 02:53:06;;;;;;;9.02;5.30;;;9.20;99.90;;;;;;5073456;28;20039;-82
2023/05/01 02:55:32;;;;;;;7.85;5.30;;;9.40;99.90;;;;;;5088958;28;20438;-76
2023/05/01 02:57:58;;;;;;;7.22;5.38;;;9.30;99.90;;;;;;5082277;28;20492;-81
2023/05/01 03:00:25;;;;;;;6.75;5.18;;;9.20;99.90;;;;;;5070837;28;20135;-81
2023/05/01 03:02:51;;;;;;;7.65;5.40;;;9.20;99.90;;;;;;5071596;28;20047;-78
2023/05/01 03:05:18;;;;;;;7.97;5.10;;;9.10;99.90;;;;;;5086376;28;20039;-83
2023/05/01 03:07:45;;;;;;;8.38;4.70;;;9.20;99.90;;;;;;5054518;28;20039;-83
2023/05/01 03:10:10;;;;;;;9.73;5.68;;;9.10;99.90;;;;;;5086036;28;20028;-79
2023/05/01 03:12:36;;;;;;;8.45;5.80;;;8.80;99.90;;;;;;5090408;28;20034;-82
2023/05/01 03:15:02;;;;;;;8.70;6.20;;;8.70;99.90;;;;;;5092779;28;20062;-79
2023/05/01 03:17:28;;;;;;;9.45;5.38;;;8.50;99.90;;;;;;5087950;28;20126;-81
2023/05/01 03:19:54;;;;;;;10.32;6.20;;;8.30;99.90;;;;;;5053954;27;20515;-77
2023/05/01 03:22:20;;;;;;;7.50;5.18;;;8.20;99.90;;;;;;5090368;28;20082;-77
2023/05/01 03:24:46;;;;;;;9.77;5.75;;;8.20;99.90;;;;;;5104252;28;20075;-77
2023/05/01 03:27:12;;;;;;;6.95;5.13;;;8.30;99.90;;;;;;5074133;28;20039;-81
2023/05/01 03:29:38;;;;;;;9.25;5.70;;;8.10;99.90;;;;;;5075511;27;20162;-82
2023/05/01 03:32:04;;;;;;;8.05;5.47;;;8.00;99.90;;;;;;5073448;28;20178;-81
2023/05/01 03:34:30;;;;;;;8.98;5.78;;;8.10;99.90;;;;;;5069577;28;20126;-81
2023/05/01 03:36:56;;;;;;;8.20;5.65;;;8.10;99.90;;;;;;5103699;27;20444;-81
2023/05/01 03:39:21;;;;;;;10.13;5.95;;;8.20;99.90;;;;;;5088242;28;20043;-83
2023/05/01 03:41:47;;;;;;;10.30;6.13;;;8.20;99.90;;;;;;5072741;27;20045;-81
2023/05/01 03:44:13;;;;;;;8.75;6.50;;;8.30;99.90;;;;;;5105154;28;20126;-81
2023/05/01 03:46:39;;;;;;;10.57;5.72;;;8.20;99.90;;;;;;5080353;28;20110;-80
2023/05/01 03:49:05;;;;;;;10.73;5.85;;;8.10;99.90;;;;;;5071836;28;20040;-78
2023/05/01 03:51:31;;;;;;;7.00;5.53;;;8.20;99.90;;;;;;5087805;28;20036;-78
2023/05/01 03:53:57;;;;;;;9.80;6.10;;;8.00;99.90;;;;;;5099257;28;20120;-77
2023/05/01 03:56:26;;;;;;;7.55;5.45;;;8.10;99.90;;;;;;5053613;28;20035;-81
2023/05/01 03:58:52;;;;;;;8.73;5.85;;;8.10;99.90;;;;;;5088025;28;20442;-81
2023/05/01 04:01:18;;;;;;;9.32;5.75;;;8.20;99.90;;;;;;5094337;27;20040;-78
2023/05/01 04:03:45;;;;;;;8.60;6.55;;;8.20;99.90;;;;;;5085669;28;20036;-79
2023/05/01 04:06:11;;;;;;;10.48;5.75;;;8.10;99.90;;;;;;5092050;28;20050;-80
2023/05/01 04:08:37;;;;;;;11.68;6.38;;;8.20;99.90;;;;;;5081878;28;20032;-82
2023/05/01 04:11:03;;;;;;;8.60;6.05;;;8.20;99.90;;;;;;5068148;28;20046;-82
2023/05/01 04:13:29;;;;;;;10.63;6.47;;;8.20;99.90;;;;;;5064383;28;20460;-83
2023/05/01 04:15:56;;;;;;;8.55;5.97;;;8.10;99.90;;;;;;5101461;28;20078;-79
2023/05/01 04:18:22;;;;;;;8.32;5.90;;;8.10;99.90;;;;;;5082718;28;20043;-80
2023/05/01 04:20:47;;;;;;;12.55;6.70;;;8.10;99.90;;;;;;5083090;28;20043;-77
2023/05/01 04:23:13;;;;;;;11.40;6.10;;;8.00;99.90;;;;;;5084554;28;20073;-80
2023/05/01 04:25:39;;;;;;;10.50;6.40;;;7.90;99.90;;;;;;5047322;28;20425;-81
2023/05/01 04:28:05;;;;;;;10.88;6.18;;;8.10;99.90;;;;;;5083324;28;20134;-80
2023/05/01 04:30:31;;;;;;;10.38;6.93;;;8.10;99.90;;;;;;5117939;27;20056;-80
2023/05/01 04:33:00;;;;;;;9.75;6.80;;;7.90;99.90;;;;;;5101132;27;20031;-80
2023/05/01 04:35:26;;;;;;;10.60;7.75;;;8.00;99.90;;;;;;5050972;27;20036;-77
2023/05/01 04:37:52;;;;;;;11.30;7.13;;;8.10;99.90;;;;;;5067214;28;20108;-76
2023/05/01 04:40:18;;;;;;;9.05;6.72;;;8.10;99.90;;;;;;5092471;28;20098;-75
2023/05/01 04:42:43;;;;;;;10.73;6.57;;;8.20;99.90;;;;;;5087667;28;20456;-81
2023/05/01 04:45:09;;;;;;;9.27;6.47;;;8.30;99.90;;;;;;5089109;27;20511;-77
2023/05/01 04:47:35;;;;;;;11.32;6.97;;;8.30;99.90;;;;;;5114984;27;20027;-82
2023/05/01 04:50:01;;;;;;;10.02;6.97;;;8.30;99.90;;;;;;5091306;28;20142;-78
2023/05/01 04:52:27;;;;;;;9.13;6.13;;;8.40;99.90;;;;;;5118198;27;20058;-83
2023/05/01 04:54:53;;;;;;;10.15;7.20;;;8.50;99.90;;;;;;5054998;28;20130;-76
2023/05/01 04:57:18;;;;;;;9.65;6.82;;;8.60;99.90;;;;;;5100451;28;20434;-78
2023/05/01 04:59:44;;;;;;;10.90;7.32;;;8.60;99.90;;;;;;5082534;28;20035;-79
2023/05/01 05:02:10;;;;;;;9.90;6.38;;;8.60;99.90;;;;;;5082955;27;20129;-81
2023/05/01 05:04:35;;;;;;;8.15;6.03;;;8.70;99.90;;;;;;5087734;28;20044;-79
2023/05/01 05:07:01;;;;;;;10.30;6.35;;;8.70;99.90;;;;;;5079148;28;20039;-80
2023/05/01 05:09:27;;;;;;;10.38;6.85;;;9.00;99.90;;;;;;5082248;27;20119;-78
2023/05/01 05:11:52;;;;;;;13.30;7.80;;;9.00;99.90;;;;;;5089506;27;21283;-82
2023/05/01 05:14:18;;;;;;;9.60;7.05;;;9.00;99.90;;;;;;5064112;28;20058;-76
2023/05/01 05:16:43;;;;;;;9.85;6.60;;;9.20;99.90;;;;;;5070490;28;20897;-79
2023/05/01 05:19:09;;;;;;;11.98;7.13;;;9.20;99.90;;;;;;5104294;27;20389;-73
2023/05/01 05:21:36;;;;;;;11.90;7.15;;;9.40;99.90;;;;;;5091213;28;20040;-79
2023/05/01 05:24:01;;;;;;;11.45;7.13;;;9.30;99.90;;;;;;5089560;28;20048;-77
2023/05/01 05:26:27;;;;;;;11.60;6.95;;;9.40;99.90;;;;;;5081100;28;20043;-80
2023/05/01 05:28:53;;;;;;;11.45;7.75;;;9.60;99.90;;;;;;5084856;28;20067;-80
2023/05/01 05:31:19;;;;;;;8.90;6.32;;;9.60;99.90;;;;;;5063323;28;20051;-75
2023/05/01 05:33:44;;;;;;;10.50;7.70;;;9.70;99.90;;;;;;5090167;28;20044;-77
2023/05/01 05:36:10;;;;;;;9.60;7.15;;;9.60;99.90;;;;;;5076615;28;20468;-78
2023/05/01 05:38:36;;;;;;;11.18;7.40;;;9.60;99.90;;;;;;5081058;28;20043;-78
2023/05/01 05:41:02;;;;;;;10.27;6.65;;;9.70;99.90;;;;;;5096806;28;20127;-77
2023/05/01 05:43:28;;;;;;;11.10;7.50;;;9.70;99.90;;;;;;5071562;28;20130;-76
2023/05/01 05:45:58;;;;;;;10.50;7.45;;;10.00;99.90;;;;;;5089147;28;20498;-81
2023/05/01 05:48:23;;;;;;;10.45;7.20;;;9.90;99.90;;;;;;5097323;28;20036;-80
2023/05/01 05:50:52;;;;;;;16.00;7.85;;;10.00;99.90;;;;;;5080889;28;20647;-78
2023/05/01 05:53:18;;;;;;;10.93;7.40;;;9.90;99.90;;;;;;5098196;28;20443;-77
2023/05/01 05:55:46;;;;;;;12.02;7.90;;;10.10;99.90;;;;;;5115034;27;20130;-81
2023/05/01 05:58:13;;;;;;;10.63;7.63;;;10.00;99.90;;;;;;5088237;28;20058;-79
2023/05/01 06:00:40;;;;;;;10.55;7.05;;;10.20;99.90;;;;;;5050374;28;20074;-77
2023/05/01 06:03:06;;;;;;;13.10;7.25;;;10.10;99.90;;;;;;5101099;28;20039;-81
2023/05/01 06:05:33;;;;;;;10.00;6.68;;;10.30;99.90;;;;;;5081905;28;20902;-77
2023/05/01 06:07:58;;;;;;;12.52;7.57;;;10.40;99.90;;;;;;5099207;28;20039;-82
2023/05/01 06:10:24;;;;;;;11.60;7.82;;;10.30;99.90;;;;;;5082914;28;20464;-78
2023/05/01 06:12:50;;;;;;;10.60;7.03;;;10.50;99.90;;;;;;5064641;28;20032;-77
2023/05/01 06:15:15;;;;;;;10.82;6.40;;;10.70;99.90;;;;;;5079273;28;20925;-79
2023/05/01 06:17:42;;;;;;;11.40;6.70;;;10.60;99.90;;;;;;5097259;28;20635;-81
2023/05/01 06:20:09;;;;;;;11.70;7.20;;;10.90;99.90;;;;;;5084746;28;20097;-79
2023/05/01 06:22:34;;;;;;;9.75;6.57;;;10.90;99.90;;;;;;5070521;28;20081;-76
2023/05/01 06:25:00;;;;;;;11.05;7.45;;;11.00;99.90;;;;;;5084320;28;20047;-77
2023/05/01 06:27:26;;;;;;;12.13;7.50;;;11.00;99.90;;;;;;5044660;28;20032;-77
2023/05/01 06:29:52;;;;;;;11.48;6.43;;;11.00;99.90;;;;;;5051709;28;20051;-78
2023/05/01 06:32:17;;;;;;;10.60;6.43;;;11.10;99.90;;;;;;5089777;28;20036;-77
2023/05/01 06:34:43;;;;;;;10.00;6.40;;;11.20;99.90;;;;;;5115898;28;20037;-79
2023/05/01 06:37:09;;;;;;;11.93;6.65;;;11.30;99.90;;;;;;5060519;28;20077;-81
2023/05/01 06:39:35;;;;;;;10.13;6.28;;;11.50;99.90;;;;;;5080704;28;20035;-81
2023/05/01 06:42:02;;;;;;;11.77;6.22;;;11.90;99.90;;;;;;5072439;28;20043;-81
2023/05/01 06:44:28;;;;;;;8.30;6.22;;;11.80;99.90;;;;;;5076965;28;20044;-79
2023/05/01 06:46:54;;;;;;;9.98;6.88;;;12.20;99.90;;;;;;5055874;28;20048;-79
2023/05/01 06:49:19;;;;;;;11.10;6.95;;;12.30;99.90;;;;;;5077485;28;20084;-82
2023/05/01 06:51:45;;;;;;;9.60;6.68;;;12.20;99.90;;;;;;5059086;28;20032;-79
2023/05/01 06:54:10;;;;;;;14.52;6.80;;;12.50;99.90;;;;;;5084564;28;20662;-78
2023/05/01 06:56:36;;;;;;;9.05;6.88;;;12.60;99.90;;;;;;5071657;28;20032;-76
2023/05/01 06:59:02;;;;;;;11.23;7.10;;;12.50;99.90;;;;;;5087317;28;20039;-78
2023/05/01 07:01:28;;;;;;;14.45;7.22;;;12.40;99.90;;;;;;5089041;28;20040;-79
2023/05/01 07:03:54;;;;;;;10.00;6.85;;;12.40;99.90;;;;;;5073601;28;20039;-78
2023/05/01 07:06:20;;;;;;;9.05;6.18;;;12.80;99.90;;;;;;5108555;28;20047;-77
2023/05/01 07:08:45;;;;;;;13.85;6.97;;;12.80;99.90;;;;;;5069726;28;20122;-76
2023/05/01 07:11:11;;;;;;;14.60;7.20;;;13.10;99.90;;;;;;5065482;28;20392;-80
2023/05/01 07:13:37;;;;;;;11.38;7.30;;;12.80;99.90;;;;;;5061612;28;20063;-78
2023/05/01 07:16:03;;;;;;;10.25;7.18;;;13.20;99.90;;;;;;5095364;28;20040;-77
2023/05/01 07:18:29;;;;;;;10.57;7.32;;;13.30;99.90;;;;;;5100176;28;20130;-76
2023/05/01 07:20:54;;;;;;;13.98;7.22;;;13.30;99.90;;;;;;5097482;28;20078;-78
2023/05/01 07:23:22;;;;;;;10.02;6.50;;;13.60;99.90;;;;;;5073832;28;20043;-78
2023/05/01 07:25:48;;;;;;;11.75;6.97;;;13.70;99.90;;;;;;5087329;28;20164;-84
2023/05/01 07:28:13;;;;;;;9.80;7.13;;;13.60;99.90;;;;;;5092436;28;20027;-79
2023/05/01 07:30:39;;;;;;;12.00;7.03;;;13.50;99.90;;;;;;5081770;27;20441;-81
2023/05/01 07:33:05;;;;;;;9.23;6.25;;;13.50;99.90;;;;;;5090073;28;20627;-78
2023/05/01 07:35:31;;;;;;;11.63;6.60;;;13.70;99.90;;;;;;5074687;28;20039;-82
2023/05/01 07:37:57;;;;;;;10.60;6.78;;;13.80;99.90;;;;;;5083663;28;20031;-80
2023/05/01 07:40:23;;;;;;;9.25;6.35;;;14.00;99.90;;;;;;5072011;28;20373;-78
2023/05/01 07:42:48;;;;;;;8.40;6.18;;;14.20;99.90;;;;;;5083732;27;20051;-80
2023/05/01 07:45:14;;;;;;;14.77;6.78;;;14.30;99.90;;;;;;5070273;28;20587;-78
2023/05/01 07:47:40;;;;;;;14.23;7.10;;;14.40;99.90;;;;;;5061279;28;20052;-78
2023/05/01 07:50:10;;;;;;;9.80;6.10;;;14.60;99.90;;;;;;5090715;28;20032;-78
2023/05/01 07:52:36;;;;;;;11.02;6.30;;;14.70;99.90;;;;;;5070259;28;20043;-81
2023/05/01 07:55:05;;;;;;;9.82;6.57;;;15.00;99.90;;;;;;5075529;28;20039;-80
2023/05/01 07:57:34;;;;;;;9.02;6.15;;;14.90;99.90;;;;;;5087718;28;20035;-78
2023/05/01 07:59:59;;;;;;;8.77;5.50;;;15.10;99.90;;;;;;5065658;28;20782;-78
2023/05/01 08:02:25;;;;;;;10.10;5.72;;;15.40;99.90;;;;;;5097793;27;20075;-78
2023/05/01 08:04:51;;;;;;;11.30;6.18;;;15.40;99.90;;;;;;5101370;27;20135;-80
2023/05/01 08:07:18;;;;;;;9.52;5.65;;;15.50;99.90;;;;;;5072459;27;20142;-80
2023/05/01 08:09:45;;;;;;;8.68;6.32;;;15.80;99.90;;;;;;5073614;28;20049;-81
2023/05/01 08:12:12;;;;;;;9.13;5.78;;;15.90;99.90;;;;;;5089456;28;20620;-80
2023/05/01 08:14:37;;;;;;;8.20;6.18;;;16.20;99.90;;;;;;5073779;28;20084;-80
2023/05/01 08:17:03;;;;;;;7.57;5.55;;;16.20;99.90;;;;;;5071742;28;20044;-79
2023/05/01 08:19:29;;;;;;;9.60;5.72;;;16.30;99.90;;;;;;5085654;28;20044;-78
2023/05/01 08:21:54;;;;;;;9.32;5.80;;;16.40;99.90;;;;;;5048413;28;20049;-79
2023/05/01 08:24:20;;;;;;;9.15;5.63;;;16.60;99.90;;;;;;5071615;28;20039;-78
2023/05/01 08:26:47;;;;;;;9.38;5.45;;;16.80;99.90;;;;;;5097416;28;20126;-80
2023/05/01 08:29:13;;;;;;;10.18;4.88;;;16.70;99.90;;;;;;5080043;28;20074;-79
2023/05/01 08:31:39;;;;;;;8.05;5.05;;;16.70;45.00;;;;;;5099928;27;20067;-77
2023/05/01 08:34:05;;;;;;;10.32;5.50;;;16.80;99.90;;;;;;5063121;28;20039;-80
2023/05/01 08:36:32;;;;;;;6.78;4.63;;;17.00;91.50;;;;;;5082956;28;20039;-81
2023/05/01 08:38:58;;;;;;;12.15;5.25;;;17.00;76.10;;;;;;5102966;27;20043;-80
2023/05/01 08:41:26;;;;;;;12.95;5.25;;;17.30;66.10;;;;;;5100016;28;20039;-79
2023/05/01 08:43:52;;;;;;;6.97;4.38;;;17.70;99.60;;;;;;5098531;28;20478;-79
2023/05/01 08:46:27;;;;;;;5.85;4.43;;;18.10;80.80;;;;;;5099086;27;20047;-79
2023/05/01 08:48:58;;;;;;;7.57;4.63;;;18.30;1.00;;;;;;5073911;28;20039;-80
2023/05/01 08:51:26;;;;;;;7.30;4.78;;;18.40;77.50;;;;;;5083050;27;20038;-80
2023/05/01 08:53:54;;;;;;;7.20;4.07;;;18.60;26.40;;;;;;5084314;28;20054;-78
2023/05/01 08:56:22;;;;;;;9.63;4.30;;;18.70;1.00;;;;;;5064873;28;21422;-79
2023/05/01 08:58:49;;;;;;;8.75;4.82;;;18.90;52.40;;;;;;5080681;28;20051;-80
2023/05/01 09:01:16;;;;;;;5.55;3.78;;;19.10;14.30;;;;;;5062688;28;20061;-79
2023/05/01 09:03:44;;;;;;;6.03;3.78;;;18.40;7.40;;;;;;5066569;28;20372;-79
2023/05/01 09:06:11;;;;;;;7.32;3.65;;;18.50;3.40;;;;;;5082258;28;20108;-80
2023/05/01 09:08:36;;;;;;;5.05;3.60;;;18.90;1.00;;;;;;5061887;27;20114;-79
2023/05/01 09:11:03;;;;;;;6.78;3.50;;;18.80;1.00;;;;;;5089271;27;20184;-80
2023/05/01 09:13:30;;;;;;;5.90;3.47;;;19.00;1.00;;;;;;5063757;28;20036;-79
2023/05/01 09:15:56;;;;;;;5.15;3.45;;;19.30;1.00;;;;;;5048258;28;20050;-79
2023/05/01 09:18:22;;;;;;;5.63;2.58;;;19.00;1.00;;;;;;5083293;28;20035;-78
2023/05/01 09:20:48;;;;;;;5.97;3.20;;;18.90;1.00;;;;;;5097023;28;20036;-81
2023/05/01 09:23:14;;;;;;;5.45;2.92;;;19.10;1.00;;;;;;5108297;28;20372;-78
2023/05/01 09:25:41;;;;;;;4.47;3.00;;;19.10;1.00;;;;;;5071962;28;20044;-80
2023/05/01 09:28:06;;;;;;;5.85;2.78;;;19.30;1.00;;;;;;5061168;28;20122;-80
2023/05/01 09:30:37;;;;;;;6.75;3.03;;;19.60;1.00;;;;;;5097591;28;20122;-77
2023/05/01 09:33:12;;;;;;;6.90;2.90;;;19.70;1.00;;;;;;5089515;27;20036;-80
2023/05/01 09:35:55;;;;;;;4.88;2.78;;;19.90;1.00;;;;;;5088261;28;20040;-80
2023/05/01 09:38:27;;;;;;;4.63;2.90;;;19.90;99.90;;;;;;5105243;28;20878;-79
2023/05/01 09:40:55;;;;;;;4.57;2.50;;;20.70;99.90;;;;;;5073080;28;20074;-82
2023/05/01 09:43:29;;;;;;;5.38;2.50;;;20.70;99.90;;;;;;5082718;28;20073;-81
2023/05/01 09:46:06;;;;;;;4.30;2.47;;;20.70;99.90;;;;;;5087583;28;20115;-80
2023/05/01 09:48:32;;;;;;;4.63;2.20;;;20.60;99.90;;;;;;5073948;28;20323;-78
2023/05/01 09:50:58;;;;;;;5.43;3.13;;;20.70;99.90;;;;;;5073914;28;20031;-83
2023/05/01 09:53:38;;;;;;;3.78;2.10;;;20.20;99.90;;;;;;5104342;28;20380;-79
2023/05/01 09:56:04;;;;;;;4.22;2.30;;;20.40;99.90;;;;;;5083112;28;20036;-80
2023/05/01 09:58:30;;;;;;;4.32;2.05;;;21.10;99.90;;;;;;5088807;28;20097;-79
2023/05/01 10:00:55;;;;;;;3.33;2.38;;;21.20;99.90;;;;;;5119843;27;20040;-80
2023/05/01 10:03:21;;;;;;;5.32;2.10;;;21.20;99.90;;;;;;5084683;28;20078;-81
2023/05/01 10:05:49;;;;;;;7.72;2.80;;;21.20;99.90;;;;;;5090570;28;20492;-82
2023/05/01 10:08:15;;;;;;;3.75;2.13;;;21.40;99.90;;;;;;5070269;28;20043;-80
2023/05/01 10:10:45;;;;;;;5.47;2.42;;;21.60;99.90;;;;;;5090788;28;20047;-80
2023/05/01 10:13:16;;;;;;;4.15;2.30;;;21.80;99.90;;;;;;5073709;28;20153;-78
2023/05/01 10:15:44;;;;;;;4.30;2.30;;;21.50;99.90;;;;;;5103061;28;20480;-79
2023/05/01 10:18:10;;;;;;;3.67;2.53;;;21.30;99.90;;;;;;5089538;28;20067;-83
2023/05/01 10:20:36;;;;;;;4.45;2.40;;;21.60;99.90;;;;;;5075739;28;20042;-82
2023/05/01 10:23:02;;;;;;;6.47;2.58;;;21.70;99.90;;;;;;5088160;28;20248;-81
2023/05/01 10:25:30;;;;;;;3.42;2.10;;;21.60;99.90;;;;;;5092039;28;20476;-83
2023/05/01 10:27:56;;;;;;;5.10;2.60;;;22.20;99.90;;;;;;5090423;28;20066;-83
2023/05/01 10:30:22;;;;;;;6.43;3.08;;;21.30;99.90;;;;;;5083984;28;20043;-82
2023/05/01 10:32:48;;;;;;;3.92;2.20;;;22.20;99.90;;;;;;5071828;28;20036;-82
2023/05/01 10:35:22;;;;;;;4.07;2.50;;;22.20;99.90;;;;;;5074460;28;20039;-79
2023/05/01 10:37:57;;;;;;;7.75;2.95;;;22.30;99.90;;;;;;5071306;28;20454;-78
2023/05/01 10:40:38;;;;;;;5.70;2.75;;;21.80;99.90;;;;;;5116376;28;20036;-81
2023/05/01 10:43:26;;;;;;;4.70;2.58;;;22.10;99.90;;;;;;5084383;28;20381;-80
2023/05/01 10:45:53;;;;;;;6.00;2.33;;;21.90;99.90;;;;;;5054635;28;20079;-81
2023/05/01 10:48:37;;;;;;;4.75;2.15;;;21.80;99.90;;;;;;5118829;28;20032;-81
2023/05/01 10:51:19;;;;;;;3.22;2.25;;;21.50;99.90;;;;;;5096083;28;20035;-79
2023/05/01 10:53:46;;;;;;;2.97;1.90;;;21.70;99.90;;;;;;5071004;28;20097;-80
2023/05/01 10:56:22;;;;;;;3.70;2.10;;;21.70;99.90;;;;;;5074013;28;20409;-80
2023/05/01 10:58:51;;;;;;;2.65;1.58;;;22.10;99.90;;;;;;5104998;28;20071;-80
2023/05/01 11:01:40;;;;;;;3.05;1.50;;;21.90;99.90;;;;;;5116663;27;20040;-78
2023/05/01 11:04:21;;;;;;;3.28;1.80;;;21.60;99.90;;;;;;5087021;28;20047;-81
2023/05/01 11:07:06;;;;;;;3.03;2.10;;;21.40;99.90;;;;;;5061072;28;20392;-82
2023/05/01 11:09:45;;;;;;;2.50;1.52;;;21.10;99.90;;;;;;5064188;28;20038;-82
2023/05/01 11:12:34;;;;;;;3.83;2.10;;;21.70;99.90;;;;;;5088203;28;20027;-82
2023/05/01 11:15:02;;;;;;;4.10;2.20;;;21.50;99.90;;;;;;5073169;28;20039;-81
2023/05/01 11:17:40;;;;;;;4.25;2.42;;;21.00;99.90;;;;;;5056777;28;20057;-79
2023/05/01 11:20:33;;;;;;;3.33;2.08;;;21.60;99.90;;;;;;5070266;28;20102;-81
2023/05/01 11:22:59;;;;;;;2.53;1.85;;;21.30;99.90;;;;;;5083452;28;20054;-80
2023/05/01 11:25:27;;;;;;;3.20;1.73;;;21.80;99.90;;;;;;5072435;28;20036;-82
2023/05/01 11:27:58;;;;;;;4.50;2.13;;;21.60;99.90;;;;;;5103798;28;20036;-85
2023/05/01 11:30:24;;;;;;;3.30;2.13;;;21.40;99.90;;;;;;5098552;28;20146;-82
2023/05/01 11:32:51;;;;;;;3.50;1.85;;;21.40;99.90;;;;;;5082896;28;20074;-85
2023/05/01 11:35:19;;;;;;;4.00;2.30;;;21.50;99.90;;;;;;5079439;28;20046;-82
2023/05/01 11:37:46;;;;;;;4.05;2.50;;;21.30;99.90;;;;;;5103478;28;20491;-84
2023/05/01 11:40:20;;;;;;;5.43;2.78;;;21.00;99.90;;;;;;5107024;28;20104;-80
2023/05/01 11:42:45;;;;;;;2.95;2.20;;;21.80;99.90;;;;;;5073686;27;20130;-83
2023/05/01 11:45:12;;;;;;;3.45;1.95;;;21.60;99.90;;;;;;5098938;28;20119;-81
2023/05/01 11:47:38;;;;;;;4.00;2.20;;;21.40;99.90;;;;;;5097140;27;20048;-85
2023/05/01 11:50:06;;;;;;;3.75;2.10;;;21.70;99.90;;;;;;5053605;27;20032;-82
2023/05/01 11:52:42;;;;;;;3.67;2.78;;;21.50;99.90;;;;;;5078727;27;20117;-80
2023/05/01 11:55:09;;;;;;;4.25;2.25;;;21.60;99.90;;;;;;5100435;28;20043;-79
2023/05/01 11:58:05;;;;;;;2.70;2.08;;;21.70;99.90;;;;;;5093476;28;20417;-81
2023/05/01 12:00:35;;;;;;;3.97;2.45;;;21.70;99.90;;;;;;5079922;28;20105;-80
2023/05/01 12:03:02;;;;;;;3.78;2.30;;;22.80;99.90;;;;;;5076467;27;20116;-82
2023/05/01 12:05:29;;;;;;;3.92;2.50;;;22.60;99.90;;;;;;5118625;27;20132;-83
2023/05/01 12:08:17;;;;;;;3.60;2.50;;;22.20;99.90;;;;;;5075540;28;20110;-83
2023/05/01 12:10:44;;;;;;;4.72;2.65;;;21.60;99.90;;;;;;5102300;28;20035;-79
2023/05/01 12:13:12;;;;;;;4.10;2.38;;;21.20;99.90;;;;;;5099619;28;20050;-82
2023/05/01 12:15:43;;;;;;;2.83;2.20;;;21.30;99.90;;;;;;5095825;28;20140;-82
2023/05/01 12:18:11;;;;;;;4.25;2.72;;;21.30;99.90;;;;;;5071576;28;20130;-83
2023/05/01 12:20:42;;;;;;;3.78;2.97;;;21.10;99.90;;;;;;5077779;28;20032;-84
2023/05/01 12:23:10;;;;;;;2.97;2.30;;;21.40;99.90;;;;;;5125204;27;20149;-82
2023/05/01 12:25:38;;;;;;;3.42;2.20;;;21.50;99.90;;;;;;5089937;28;20047;-82
2023/05/01 12:28:09;;;;;;;4.25;2.17;;;21.10;99.90;;;;;;5073390;28;20050;-83
2023/05/01 12:30:36;;;;;;;3.10;1.58;;;21.00;99.90;;;;;;5090385;28;20639;-82
2023/05/01 12:33:09;;;;;;;2.05;1.38;;;20.70;99.90;;;;;;5089741;28;20138;-80
2023/05/01 12:35:35;;;;;;;3.78;1.80;;;20.70;99.90;;;;;;5090653;28;20383;-85
2023/05/01 12:38:11;;;;;;;3.70;1.58;;;20.80;99.90;;;;;;5084576;28;20077;-82
2023/05/01 12:40:49;;;;;;;2.88;1.52;;;20.80;99.90;;;;;;5073063;27;20135;-81
2023/05/01 12:43:17;;;;;;;2.50;1.77;;;20.80;99.90;;;;;;5097912;28;20370;-79
2023/05/01 12:45:43;;;;;;;1.98;1.20;;;20.70;99.90;;;;;;5105072;28;20569;-81
2023/05/01 12:48:12;;;;;;;2.15;1.60;;;20.90;99.90;;;;;;5061387;28;20110;-82
2023/05/01 12:50:38;;;;;;;3.05;1.60;;;21.10;99.90;;;;;;5080220;27;20067;-84
2023/05/01 12:53:11;;;;;;;2.88;1.30;;;21.10;99.90;;;;;;5073187;28;20035;-82
2023/05/01 12:55:48;;;;;;;2.95;1.27;;;21.00;99.90;;;;;;5089076;28;20047;-81